createdAt,value
2023-01-29T00:00:10.519Z,-2.63
2023-01-29T00:02:41.163Z,-3.56
2023-01-29T00:05:25.956Z,-3.82
2023-01-29T00:07:56.188Z,-3.16
2023-01-29T00:10:25.820Z,-3.28
2023-01-29T00:12:53.867Z,-3.09
2023-01-29T00:15:21.547Z,-2.87
2023-01-29T00:17:49.168Z,-2.75
2023-01-29T00:20:17.899Z,-2.02
2023-01-29T00:22:45.687Z,-2.41
2023-01-29T00:25:19.723Z,-2.64
2023-01-29T00:27:47.648Z,-2.81
2023-01-29T00:30:19.347Z,-3.27
2023-01-29T00:32:47.256Z,-3.45
2023-01-29T00:35:14.973Z,-3.57
2023-01-29T00:37:43.047Z,-3.19
2023-01-29T00:40:12.196Z,-1.96
2023-01-29T00:42:58.441Z,-2.09
2023-01-29T00:45:26.130Z,-2.02
2023-01-29T00:47:53.738Z,-1.89
2023-01-29T00:50:22.181Z,-1.47
2023-01-29T00:52:51.807Z,-1.83
2023-01-29T00:55:19.601Z,-2.45
2023-01-29T00:57:48.068Z,-2.46
2023-01-29T01:00:19.489Z,-2.75
2023-01-29T01:03:05.630Z,-2.08
2023-01-29T01:05:34.196Z,-1.97
2023-01-29T01:08:01.870Z,-2.97
2023-01-29T01:10:33.105Z,-2.90
2023-01-29T01:13:05.527Z,-3.95
2023-01-29T01:15:40.065Z,-4.11
2023-01-29T01:18:07.867Z,-3.80
2023-01-29T01:20:36.521Z,-3.33
2023-01-29T01:23:04.449Z,-3.38
2023-01-29T01:25:32.615Z,-3.24
2023-01-29T01:28:03.383Z,-3.00
2023-01-29T01:30:31.034Z,-2.65
2023-01-29T01:32:59.641Z,-2.72
2023-01-29T01:35:27.279Z,-3.76
2023-01-29T01:37:54.855Z,-3.22
2023-01-29T01:40:25.474Z,-3.34
2023-01-29T01:42:59.501Z,-3.45
2023-01-29T01:45:35.734Z,-3.45
2023-01-29T01:48:17.223Z,-3.09
2023-01-29T01:50:58.689Z,-3.16
2023-01-29T01:53:37.405Z,-3.27
2023-01-29T01:56:10.568Z,-2.98
2023-01-29T01:58:43.850Z,-3.00
2023-01-29T02:01:12.838Z,-2.98
2023-01-29T02:04:14.591Z,-3.06
2023-01-29T02:07:02.388Z,-2.31
2023-01-29T02:09:39.585Z,-3.07
2023-01-29T02:12:11.979Z,-2.99
2023-01-29T02:14:43.450Z,-2.77
2023-01-29T02:17:20.032Z,-1.84
2023-01-29T02:20:27.090Z,-1.29
2023-01-29T02:23:40.860Z,-1.06
2023-01-29T02:26:37.527Z,-1.68
2023-01-29T02:29:25.254Z,-2.01
2023-01-29T02:32:22.919Z,-1.40
2023-01-29T02:35:29.268Z,-1.08
2023-01-29T02:38:27.245Z,-1.12
2023-01-29T02:41:09.900Z,-1.30
2023-01-29T02:43:54.019Z,-1.04
2023-01-29T02:46:39.063Z,-1.71
2023-01-29T02:49:30.448Z,-1.21
2023-01-29T02:52:03.941Z,-0.38
2023-01-29T02:54:55.502Z,-0.99
2023-01-29T02:57:29.308Z,-2.24
2023-01-29T03:00:26.339Z,-2.70
2023-01-29T03:03:13.429Z,-2.11
2023-01-29T03:05:54.900Z,-2.03
2023-01-29T03:08:45.889Z,-2.45
2023-01-29T03:11:17.755Z,-2.56
2023-01-29T03:13:53.183Z,-2.57
2023-01-29T03:16:51.433Z,-2.14
2023-01-29T03:19:41.908Z,-2.84
2023-01-29T03:22:21.879Z,-2.81
2023-01-29T03:25:18.141Z,-2.45
2023-01-29T03:28:15.685Z,-2.41
2023-01-29T03:31:12.989Z,-2.47
2023-01-29T03:33:54.263Z,-2.26
2023-01-29T03:37:01.235Z,-2.40
2023-01-29T03:39:29.755Z,-2.08
2023-01-29T03:42:35.012Z,-2.65
2023-01-29T03:45:14.836Z,-2.48
2023-01-29T03:48:04.090Z,-2.72
2023-01-29T03:51:17.256Z,-2.92
2023-01-29T03:54:07.884Z,-2.40
2023-01-29T03:56:50.476Z,-2.20
2023-01-29T04:00:14.867Z,-2.78
2023-01-29T04:03:21.819Z,-2.73
2023-01-29T04:06:16.680Z,-2.42
2023-01-29T04:09:04.283Z,-2.10
2023-01-29T04:11:36.242Z,-2.14
2023-01-29T04:14:06.176Z,-2.58
2023-01-29T04:16:41.243Z,-2.22
2023-01-29T04:19:15.109Z,-2.72
2023-01-29T04:21:45.279Z,-3.12
2023-01-29T04:24:14.184Z,-2.95
2023-01-29T04:26:54.823Z,-2.81
2023-01-29T04:29:47.314Z,-3.24
2023-01-29T04:32:38.773Z,-2.87
2023-01-29T04:35:30.393Z,-2.94
2023-01-29T04:38:09.576Z,-3.47
2023-01-29T04:40:51.075Z,-3.61
2023-01-29T04:43:55.345Z,-3.16
2023-01-29T04:47:07.355Z,-3.03
2023-01-29T04:49:55.558Z,-3.24
2023-01-29T04:52:59.011Z,-3.16
2023-01-29T04:55:40.357Z,-3.24
2023-01-29T04:58:28.397Z,-3.03
2023-01-29T05:00:58.076Z,-2.76
2023-01-29T05:03:27.268Z,-3.27
2023-01-29T05:05:57.233Z,-2.90
2023-01-29T05:08:27.228Z,-3.67
2023-01-29T05:10:57.012Z,-3.71
2023-01-29T05:13:26.702Z,-3.88
2023-01-29T05:16:17.646Z,-3.67
2023-01-29T05:18:45.941Z,-3.74
2023-01-29T05:21:13.751Z,-3.08
2023-01-29T05:23:53.038Z,-3.32
2023-01-29T05:26:39.770Z,-3.63
2023-01-29T05:29:07.551Z,-3.40
2023-01-29T05:31:35.145Z,-3.34
2023-01-29T05:34:02.773Z,-3.02
2023-01-29T05:36:30.656Z,-2.83
2023-01-29T05:38:59.165Z,-2.63
2023-01-29T05:41:26.750Z,-2.81
2023-01-29T05:43:54.384Z,-2.93
2023-01-29T05:46:21.996Z,-3.48
2023-01-29T05:48:51.955Z,-4.05
2023-01-29T05:51:19.585Z,-4.05
2023-01-29T05:53:47.143Z,-3.88
2023-01-29T05:56:14.727Z,-4.11
2023-01-29T05:58:42.413Z,-3.72
2023-01-29T06:01:19.847Z,-3.24
2023-01-29T06:03:47.843Z,-3.52
2023-01-29T06:06:16.146Z,-3.05
2023-01-29T06:08:44.035Z,-3.17
2023-01-29T06:11:13.812Z,-3.51
2023-01-29T06:13:41.624Z,-2.82
2023-01-29T06:16:11.149Z,-3.53
2023-01-29T06:18:39.910Z,-3.14
2023-01-29T06:21:11.076Z,-2.76
2023-01-29T06:23:39.452Z,-2.90
2023-01-29T06:26:13.195Z,-3.17
2023-01-29T06:28:41.680Z,-2.51
2023-01-29T06:31:37.717Z,-2.60
2023-01-29T06:33:58.196Z,-2.56
2023-01-29T06:36:25.766Z,-3.35
2023-01-29T06:38:53.475Z,-3.26
2023-01-29T06:41:25.201Z,-3.22
2023-01-29T06:43:53.043Z,-2.82
2023-01-29T06:46:21.045Z,-2.50
2023-01-29T06:48:48.619Z,-2.14
2023-01-29T06:51:16.272Z,-2.90
2023-01-29T06:53:45.979Z,-2.97
2023-01-29T06:56:14.327Z,-2.86
2023-01-29T06:58:43.458Z,-2.23
2023-01-29T07:01:22.155Z,-1.62
2023-01-29T07:03:57.027Z,-2.96
2023-01-29T07:06:31.410Z,-2.63
2023-01-29T07:08:59.004Z,-2.79
2023-01-29T07:11:26.568Z,-3.04
2023-01-29T07:13:54.162Z,-2.09
2023-01-29T07:16:21.881Z,-2.81
2023-01-29T07:18:49.501Z,-2.68
2023-01-29T07:21:17.157Z,-3.21
2023-01-29T07:23:44.800Z,-3.08
2023-01-29T07:26:12.568Z,-2.60
2023-01-29T07:28:40.670Z,-2.70
2023-01-29T07:31:11.430Z,-2.37
2023-01-29T07:33:39.142Z,-2.86
2023-01-29T07:36:11.612Z,-3.10
2023-01-29T07:38:39.239Z,-3.22
2023-01-29T07:41:07.176Z,-2.38
2023-01-29T07:43:34.788Z,-2.77
2023-01-29T07:46:04.696Z,-2.82
2023-01-29T07:48:32.757Z,-2.86
2023-01-29T07:51:00.768Z,-2.72
2023-01-29T07:53:29.082Z,-2.41
2023-01-29T07:55:57.408Z,-2.86
2023-01-29T07:58:25.195Z,-2.51
2023-01-29T08:00:52.812Z,-2.36
2023-01-29T08:03:20.794Z,-2.66
2023-01-29T08:05:48.755Z,-2.59
2023-01-29T08:08:16.681Z,-2.57
2023-01-29T08:10:44.259Z,-2.48
2023-01-29T08:13:14.781Z,-2.18
2023-01-29T08:15:46.051Z,-1.70
2023-01-29T08:18:14.808Z,-1.80
2023-01-29T08:20:42.613Z,-2.19
2023-01-29T08:23:16.420Z,-1.79
2023-01-29T08:25:44.171Z,-2.16
2023-01-29T08:28:12.347Z,-2.00
2023-01-29T08:30:40.425Z,-2.13
2023-01-29T08:33:08.049Z,-2.91
2023-01-29T08:35:36.162Z,-2.65
2023-01-29T08:38:05.377Z,-2.79
2023-01-29T08:40:34.996Z,-2.11
2023-01-29T08:43:09.149Z,-2.09
2023-01-29T08:45:40.991Z,-2.28
2023-01-29T08:48:10.124Z,-2.63
2023-01-29T08:50:38.323Z,-2.21
2023-01-29T08:53:08.701Z,-2.03
2023-01-29T08:55:39.025Z,-2.61
2023-01-29T08:58:08.751Z,-2.58
2023-01-29T09:00:36.582Z,-2.86
2023-01-29T09:03:04.979Z,-2.27
2023-01-29T09:05:32.545Z,-2.28
2023-01-29T09:08:00.447Z,-1.90
2023-01-29T09:10:28.111Z,-2.63
2023-01-29T09:12:55.725Z,-2.53
2023-01-29T09:15:23.874Z,-1.79
2023-01-29T09:17:51.780Z,-2.02
2023-01-29T09:20:19.869Z,-2.28
2023-01-29T09:22:47.660Z,-2.15
2023-01-29T09:27:39.311Z,-2.46
2023-01-29T09:30:07.730Z,-2.20
2023-01-29T09:35:24.051Z,-2.12
2023-01-29T09:37:52.538Z,-1.38
2023-01-29T09:40:40.643Z,-1.09
2023-01-29T09:43:18.627Z,-1.33
2023-01-29T09:46:12.900Z,-1.15
2023-01-29T09:48:41.344Z,-0.96
2023-01-29T09:51:28.823Z,-1.60
2023-01-29T09:54:24.408Z,-1.13
2023-01-29T09:56:57.068Z,-1.55
2023-01-29T09:59:29.886Z,-1.49
2023-01-29T10:02:15.556Z,-1.36
2023-01-29T10:05:38.757Z,-1.14
2023-01-29T10:08:48.062Z,-1.66
2023-01-29T10:12:01.947Z,-1.79
2023-01-29T10:14:56.433Z,-1.78
2023-01-29T10:17:52.422Z,-2.05
2023-01-29T10:21:19.294Z,-2.01
2023-01-29T10:24:49.185Z,-2.24
2023-01-29T10:27:18.859Z,-1.84
2023-01-29T10:29:51.755Z,-1.55
2023-01-29T10:32:24.106Z,-1.70
2023-01-29T10:35:02.519Z,-1.46
2023-01-29T10:37:43.665Z,-1.55
2023-01-29T10:40:41.590Z,-1.47
2023-01-29T10:43:29.606Z,-1.26
2023-01-29T10:46:38.097Z,-1.02
2023-01-29T10:49:45.167Z,-1.70
2023-01-29T10:52:46.594Z,-1.25
2023-01-29T10:55:34.980Z,-0.67
2023-01-29T10:58:30.956Z,-1.31
2023-01-29T11:00:59.007Z,-0.93
2023-01-29T11:03:33.268Z,-0.67
2023-01-29T11:06:32.040Z,-1.09
2023-01-29T11:09:29.213Z,-0.93
2023-01-29T11:12:13.302Z,-0.71
2023-01-29T11:14:56.792Z,-0.99
2023-01-29T11:17:26.166Z,-0.59
2023-01-29T11:19:55.838Z,-0.86
2023-01-29T11:22:28.961Z,-0.75
2023-01-29T11:25:17.173Z,-0.38
2023-01-29T11:27:52.805Z,-0.19
2023-01-29T11:30:29.299Z,-0.47
2023-01-29T11:33:23.757Z,-0.24
2023-01-29T11:35:52.709Z,0.05
2023-01-29T11:38:29.063Z,-0.35
2023-01-29T11:41:22.364Z,-0.36
2023-01-29T11:43:50.920Z,-0.84
2023-01-29T11:46:18.562Z,-1.07
2023-01-29T11:48:51.486Z,-1.09
2023-01-29T11:51:29.085Z,-0.99
2023-01-29T11:54:04.142Z,-0.80
2023-01-29T11:56:41.385Z,-1.02
2023-01-29T11:59:37.266Z,-0.91
2023-01-29T12:02:34.143Z,-1.00
2023-01-29T12:05:26.299Z,-0.44
2023-01-29T12:08:02.102Z,-0.95
2023-01-29T12:10:37.006Z,-0.71
2023-01-29T12:13:19.760Z,-0.41
2023-01-29T12:15:49.293Z,-0.27
2023-01-29T12:18:32.804Z,-0.11
2023-01-29T12:21:05.019Z,-0.53
2023-01-29T12:23:48.001Z,-0.19
2023-01-29T12:26:24.272Z,-0.62
2023-01-29T12:29:22.964Z,-0.16
2023-01-29T12:32:06.170Z,-0.65
2023-01-29T12:34:43.518Z,-0.57
2023-01-29T12:37:38.041Z,-0.89
2023-01-29T12:40:18.842Z,-0.90
2023-01-29T12:42:52.008Z,-0.46
2023-01-29T12:45:24.782Z,-0.70
2023-01-29T12:47:57.456Z,-1.20
2023-01-29T12:50:32.917Z,-1.37
2023-01-29T12:53:16.462Z,-0.71
2023-01-29T12:55:55.362Z,-1.47
2023-01-29T12:58:32.288Z,-1.40
2023-01-29T13:01:27.205Z,-1.20
2023-01-29T13:04:14.956Z,-0.70
2023-01-29T13:06:49.595Z,-1.01
2023-01-29T13:09:26.883Z,-0.53
2023-01-29T13:12:01.786Z,-0.42
2023-01-29T13:15:21.910Z,-0.89
2023-01-29T13:17:56.488Z,-0.88
2023-01-29T13:20:31.987Z,-1.00
2023-01-29T13:23:18.953Z,-1.34
2023-01-29T13:25:52.097Z,-1.05
2023-01-29T13:28:24.279Z,-0.90
2023-01-29T13:31:36.868Z,-1.08
2023-01-29T13:34:33.908Z,-1.17
2023-01-29T13:37:38.010Z,-0.31
2023-01-29T13:40:08.443Z,0.34
2023-01-29T13:42:55.510Z,0.06
2023-01-29T13:45:53.590Z,-0.64
2023-01-29T13:48:28.783Z,-1.26
2023-01-29T13:51:00.523Z,-0.76
2023-01-29T13:53:33.274Z,-0.30
2023-01-29T13:56:35.284Z,-0.02
2023-01-29T13:59:06.077Z,-0.69
2023-01-29T14:01:48.400Z,-0.98
2023-01-29T14:04:18.794Z,-1.18
2023-01-29T14:06:52.416Z,-1.13
2023-01-29T14:09:49.388Z,-1.39
2023-01-29T14:12:23.176Z,-0.86
2023-01-29T14:14:56.711Z,-0.46
2023-01-29T14:17:26.914Z,-0.42
2023-01-29T14:20:19.100Z,-1.01
2023-01-29T14:22:56.492Z,-1.07
2023-01-29T14:25:40.878Z,-1.26
2023-01-29T14:28:21.075Z,-0.62
2023-01-29T14:30:49.807Z,0.30
2023-01-29T14:33:39.835Z,-1.22
2023-01-29T14:36:15.924Z,-1.35
2023-01-29T14:38:51.824Z,-2.00
2023-01-29T14:41:32.377Z,-1.29
2023-01-29T14:44:56.440Z,-1.73
2023-01-29T14:47:32.841Z,-1.08
2023-01-29T14:50:22.365Z,-1.25
2023-01-29T14:52:53.998Z,-0.65
2023-01-29T14:55:38.326Z,-0.51
2023-01-29T14:58:12.702Z,-0.35
2023-01-29T15:00:45.200Z,-0.18
2023-01-29T15:03:49.731Z,-0.15
2023-01-29T15:06:35.548Z,0.55
2023-01-29T15:09:36.508Z,0.48
2023-01-29T15:12:23.686Z,0.34
2023-01-29T15:15:19.352Z,0.06
2023-01-29T15:18:04.919Z,-0.39
2023-01-29T15:20:36.579Z,-0.53
2023-01-29T15:23:23.476Z,-0.90
2023-01-29T15:25:55.079Z,-0.09
2023-01-29T15:28:23.155Z,-0.07
2023-01-29T15:30:59.233Z,-0.33
2023-01-29T15:33:28.229Z,-0.69
2023-01-29T15:36:07.407Z,-0.96
2023-01-29T15:38:35.984Z,-0.81
2023-01-29T15:41:17.299Z,-0.75
2023-01-29T15:43:49.175Z,-1.22
2023-01-29T15:46:25.544Z,-1.38
2023-01-29T15:48:57.103Z,-1.57
2023-01-29T15:51:27.250Z,-1.50
2023-01-29T15:53:59.687Z,-1.06
2023-01-29T15:56:40.875Z,-1.54
2023-01-29T15:59:21.653Z,-1.26
2023-01-29T16:01:49.519Z,-1.16
2023-01-29T16:04:23.895Z,-0.79
2023-01-29T16:06:54.209Z,-0.91
2023-01-29T16:09:25.288Z,-0.99
2023-01-29T16:11:57.344Z,-0.46
2023-01-29T16:14:26.590Z,-0.88
2023-01-29T16:16:55.435Z,-1.51
2023-01-29T16:19:29.391Z,-1.49
2023-01-29T16:22:02.236Z,-1.51
2023-01-29T16:24:34.418Z,-1.22
2023-01-29T16:27:14.836Z,-1.19
2023-01-29T16:29:42.637Z,-1.27
2023-01-29T16:32:13.686Z,-0.63
2023-01-29T16:34:45.115Z,-0.97
2023-01-29T16:37:46.374Z,-1.32
2023-01-29T16:40:27.176Z,-1.27
2023-01-29T16:43:45.401Z,-0.71
2023-01-29T16:46:37.421Z,-0.69
2023-01-29T16:49:37.576Z,-0.38
2023-01-29T16:52:34.697Z,-1.02
2023-01-29T16:55:25.212Z,-0.30
2023-01-29T16:57:55.335Z,-1.05
2023-01-29T17:00:30.920Z,-1.03
2023-01-29T17:03:05.453Z,-1.38
2023-01-29T17:05:36.969Z,-0.21
2023-01-29T17:08:06.186Z,-0.71
2023-01-29T17:10:34.037Z,0.72
2023-01-29T17:13:09.334Z,-0.24
2023-01-29T17:15:46.543Z,-0.65
2023-01-29T17:18:21.915Z,-0.27
2023-01-29T17:20:50.831Z,-0.46
2023-01-29T17:23:19.277Z,-0.75
2023-01-29T17:25:47.942Z,-1.40
2023-01-29T17:28:17.707Z,-0.59
2023-01-29T17:30:56.612Z,-0.70
2023-01-29T17:33:32.893Z,-0.73
2023-01-29T17:36:00.580Z,-0.29
2023-01-29T17:38:28.248Z,-0.15
2023-01-29T17:41:04.241Z,-0.06
2023-01-29T17:43:32.062Z,0.19
2023-01-29T17:45:59.683Z,0.11
2023-01-29T17:48:29.497Z,-0.25
2023-01-29T17:51:01.932Z,-0.38
2023-01-29T17:53:44.165Z,-0.68
2023-01-29T17:56:27.425Z,-0.89
2023-01-29T17:58:55.164Z,-0.79
2023-01-29T18:01:22.789Z,-0.99
2023-01-29T18:03:50.422Z,-0.88
2023-01-29T18:06:28.477Z,-1.11
2023-01-29T18:08:56.799Z,-0.45
2023-01-29T18:11:24.841Z,-0.12
2023-01-29T18:13:52.641Z,-0.04
2023-01-29T18:16:24.439Z,-0.56
2023-01-29T18:18:52.850Z,-0.98
2023-01-29T18:21:20.600Z,-0.69
2023-01-29T18:23:48.181Z,-0.64
2023-01-29T18:26:16.897Z,-0.74
2023-01-29T18:28:45.082Z,-0.86
2023-01-29T18:31:14.351Z,-0.86
2023-01-29T18:33:42.284Z,-0.85
2023-01-29T18:36:09.893Z,-0.76
2023-01-29T18:38:37.493Z,-1.23
2023-01-29T18:41:10.809Z,-0.96
2023-01-29T18:43:40.089Z,-0.76
2023-01-29T18:46:09.323Z,-0.53
2023-01-29T18:48:37.202Z,-0.91
2023-01-29T18:51:05.862Z,-1.24
2023-01-29T18:53:33.472Z,-1.95
2023-01-29T18:56:04.706Z,-1.44
2023-01-29T18:58:37.887Z,-1.07
2023-01-29T19:01:09.797Z,-1.11
2023-01-29T19:03:41.909Z,-1.29
2023-01-29T19:06:11.742Z,-1.61
2023-01-29T19:08:40.798Z,-1.76
2023-01-29T19:11:09.005Z,-0.68
2023-01-29T19:13:37.880Z,-1.09
2023-01-29T19:16:13.442Z,-0.82
2023-01-29T19:18:41.334Z,-0.87
2023-01-29T19:21:12.819Z,-1.43
2023-01-29T19:23:42.664Z,-1.34
2023-01-29T19:26:11.394Z,-1.77
2023-01-29T19:28:39.570Z,-1.81
2023-01-29T19:31:07.894Z,-1.46
2023-01-29T19:33:35.636Z,-1.53
2023-01-29T19:36:03.479Z,-1.79
2023-01-29T19:38:33.480Z,-1.55
2023-01-29T19:41:01.090Z,-2.08
2023-01-29T19:43:30.634Z,-2.10
2023-01-29T19:46:00.913Z,-1.71
2023-01-29T19:48:29.049Z,-1.61
2023-01-29T19:51:08.316Z,-1.83
2023-01-29T19:53:43.859Z,-1.80
2023-01-29T19:56:15.137Z,-1.19
2023-01-29T19:58:42.949Z,-1.13
2023-01-29T20:01:20.347Z,-1.85
2023-01-29T20:03:49.360Z,-1.62
2023-01-29T20:06:21.989Z,-1.76
2023-01-29T20:08:49.771Z,-2.10
2023-01-29T20:11:21.486Z,-2.04
2023-01-29T20:13:51.101Z,-1.91
2023-01-29T20:16:19.417Z,-1.77
2023-01-29T20:18:47.219Z,-1.86
2023-01-29T20:21:22.617Z,-1.49
2023-01-29T20:23:51.542Z,-1.64
2023-01-29T20:26:20.328Z,-1.16
2023-01-29T20:28:48.439Z,-0.94
2023-01-29T20:31:16.879Z,-1.15
2023-01-29T20:33:44.724Z,-1.84
2023-01-29T20:36:14.572Z,-2.16
2023-01-29T20:38:42.337Z,-2.02
2023-01-29T20:41:15.583Z,-1.93
2023-01-29T20:43:45.121Z,-1.76
2023-01-29T20:46:13.342Z,-1.71
2023-01-29T20:48:41.977Z,-1.50
2023-01-29T20:51:16.784Z,-1.63
2023-01-29T20:53:46.609Z,-1.69
2023-01-29T20:56:16.598Z,-1.93
2023-01-29T20:58:45.151Z,-1.93
2023-01-29T21:01:16.595Z,-1.32
2023-01-29T21:03:44.922Z,-1.76
2023-01-29T21:06:13.873Z,-2.00
2023-01-29T21:08:42.274Z,-2.30
2023-01-29T21:11:10.754Z,-2.43
2023-01-29T21:13:38.547Z,-2.54
2023-01-29T21:16:06.908Z,-2.51
2023-01-29T21:18:34.533Z,-1.99
2023-01-29T21:21:02.189Z,-1.98
2023-01-29T21:23:30.056Z,-2.20
2023-01-29T21:26:06.031Z,-2.09
2023-01-29T21:28:34.401Z,-1.99
2023-01-29T21:31:04.606Z,-2.05
2023-01-29T21:33:33.666Z,-1.65
2023-01-29T21:36:02.029Z,-1.72
2023-01-29T21:38:29.571Z,-1.76
2023-01-29T21:41:02.483Z,-1.46
2023-01-29T21:43:30.711Z,-1.65
2023-01-29T21:46:03.831Z,-1.67
2023-01-29T21:48:31.577Z,-1.78
2023-01-29T21:50:59.274Z,-1.29
2023-01-29T21:53:26.945Z,-1.73
2023-01-29T21:56:01.194Z,-1.11
2023-01-29T21:58:29.866Z,-1.46
2023-01-29T22:01:35.659Z,-1.21
2023-01-29T22:03:47.249Z,-0.97
2023-01-29T22:06:15.778Z,-1.42
2023-01-29T22:08:43.403Z,-1.88
2023-01-29T22:11:11.359Z,-1.67
2023-01-29T22:13:39.087Z,-1.29
2023-01-29T22:16:07.408Z,-1.13
2023-01-29T22:18:35.163Z,-1.26
2023-01-29T22:21:02.957Z,-1.25
2023-01-29T22:23:32.262Z,-1.80
2023-01-29T22:26:08.883Z,-1.93
2023-01-29T22:28:36.828Z,-1.66
2023-01-29T22:31:05.462Z,-1.71
2023-01-29T22:33:33.579Z,-1.40
2023-01-29T22:36:01.445Z,-1.45
2023-01-29T22:38:29.604Z,-1.04
2023-01-29T22:40:59.662Z,-1.47
2023-01-29T22:43:27.415Z,-1.93
2023-01-29T22:45:56.326Z,-1.87
2023-01-29T22:48:24.131Z,-1.58
2023-01-29T22:51:11.884Z,-1.58
2023-01-29T22:53:54.727Z,-1.52
2023-01-29T22:56:26.170Z,-1.52
2023-01-29T22:58:59.203Z,-1.87
2023-01-29T23:01:30.034Z,-1.88
2023-01-29T23:03:57.959Z,-1.76
2023-01-29T23:06:25.649Z,-1.55
2023-01-29T23:08:53.454Z,-1.81
2023-01-29T23:11:23.404Z,-1.82
2023-01-29T23:13:54.275Z,-2.08
2023-01-29T23:16:27.985Z,-1.82
2023-01-29T23:18:57.007Z,-1.89
2023-01-29T23:21:26.153Z,-1.68
2023-01-29T23:24:01.296Z,-1.66
2023-01-29T23:26:48.040Z,-1.80
2023-01-29T23:29:15.919Z,-1.98
2023-01-29T23:31:43.632Z,-2.20
2023-01-29T23:34:11.411Z,-2.15
2023-01-29T23:36:39.025Z,-1.69
2023-01-29T23:39:06.931Z,-2.00
2023-01-29T23:41:34.663Z,-2.21
2023-01-29T23:44:02.382Z,-2.21
2023-01-29T23:46:30.479Z,-2.35
2023-01-29T23:48:58.430Z,-2.16
2023-01-29T23:51:26.198Z,-1.88
2023-01-29T23:53:54.019Z,-1.93
2023-01-29T23:56:21.840Z,-1.60
2023-01-29T23:58:56.944Z,-1.44
